Rechercher aéroport 
image banner adimage banner adimage banner ad
image banner ad

4CA9 - Randy Champe-Gary Howe Memorial

Situé à Los Angeles, United States

ICAO - 4CA9, IATA -

Données fournies par Airmate  

Information générale

Coordonnées: N33°58'12" W118°16'39"
Élévation : 184 feet MSL.
Variation magnétique : 14° East
Voir autres Aéroports à California

Données opérationnelles

Special qualification required
Heure actuelle UTC:
Heure actuelle locale:
METAR: KHHR 231453Z 25003KT 10SM CLR 18/15 A2993 RMK AO2 SLP133 T01780150 55000 $
Voir NOTAMs / SUP AIP / TFR affectant cet aéroport [VIEW]
Fréquences de communication: [VIEW]

Pistes:

Coordonnées de l'aéroport

Adresse: Los Angeles United States

Vue satellite de 4CA9